Villa El Recreo, Puerto Rico
Current Conditions -  °F | °C
As of 9:53 AM on Friday 24 Oct 2014 (Local Time) from TJNR Reporting Station
Overcast Overcast  
Wind Chill: 85°   Ceiling: 3100
Heat Index: 97°   Visibility: 10mi
Dew Point: 78°   Wind: 6mph
Humidity: 80%   Direction: 110°ESE
Pressure: 30"   Gusts: NA
Location:  18.0547°N, 65.8738°W
Report Text: TJNR 241353Z AUTO 11005KT 10SM SCT023 BKN031 OVC065 29/26 A3000 RMK AO2 RAB36E49 SLP158 P0000 T02940256 $
Loading
Personal Weather Stations






























Interactive Weather Map
Tropical Storm Tracking
New forecast layout! Learn more

10-Day Weather Forecast

Advertisements
Track Severe Weather on mobile